Time;durP1;ratioP1;P1;durP2;ratioP2;P2;SDS_P1;SDS_P2;PMS_P1;PMS_P2;Temp;Humidity;BMP_temperature;BMP_pressure;BME280_temperature;BME280_humidity;BME280_pressure;Samples;Min_cycle;Max_cycle;Signal;HPM_P1;HPM_P2
2022/09/05 00:01:40;;;;;;;;;;;;;;;;;;6183090;23;19911;-70
2022/09/05 00:04:05;;;;;;;;;;;;;;;;;;6210548;23;19918;-68
2022/09/05 00:06:31;;;;;;;;;;;;;;;;;;6206375;23;19923;-71
2022/09/05 00:08:56;;;;;;;;;;;;;;;;;;6208025;23;19995;-70
2022/09/05 00:11:23;;;;;;;;;;;;;;;;;;6210709;23;20176;-72
2022/09/05 00:13:49;;;;;;;;;;;;;;;;;;6210845;23;20344;-70
2022/09/05 00:16:15;;;;;;;;;;;;;;;;;;6209997;23;19926;-71
2022/09/05 00:18:41;;;;;;;;;;;;;;;;;;6210633;23;19912;-70
2022/09/05 00:21:06;;;;;;;;;;;;;;;;;;6183760;23;20218;-72
2022/09/05 00:23:32;;;;;;;;;;;;;;;;;;6210280;23;19916;-71
2022/09/05 00:25:58;;;;;;;;;;;;;;;;;;6209441;23;19912;-71
2022/09/05 00:28:23;;;;;;;;;;;;;;;;;;6212743;23;19966;-71
2022/09/05 00:30:49;;;;;;;;;;;;;;;;;;6186200;23;19998;-72
2022/09/05 00:33:14;;;;;;;;;;;;;;;;;;6212829;23;19926;-71
2022/09/05 00:35:40;;;;;;;;;;;;;;;;;;6212947;23;19974;-70
2022/09/05 00:38:06;;;;;;;;;;;;;;;;;;6212637;23;19912;-70
2022/09/05 00:40:32;;;;;;;;;;;;;;;;;;6212593;23;20001;-71
2022/09/05 00:42:57;;;;;;;;;;;;;;;;;;6212623;23;20259;-71
2022/09/05 00:45:24;;;;;;;;;;;;;;;;;;6212250;23;19916;-71
2022/09/05 00:47:49;;;;;;;;;;;;;;;;;;6213114;23;19915;-71
2022/09/05 00:50:15;;;;;;;;;;;;;;;;;;6212306;23;20410;-72
2022/09/05 00:52:40;;;;;;;;;;;;;;;;;;6212616;23;19920;-71
2022/09/05 00:55:06;;;;;;;;;;;;;;;;;;6212709;23;20072;-70
2022/09/05 00:57:34;;;;;;;;;;;;;;;;;;6212822;23;19916;-71
2022/09/05 01:00:00;;;;;;;;;;;;;;;;;;6212477;23;19919;-71
2022/09/05 01:02:25;;;;;;;;;;;;;;;;;;6212791;23;19986;-71
2022/09/05 01:04:51;;;;;;;;;;;;;;;;;;6185933;23;20263;-70
2022/09/05 01:07:16;;;;;;;;;;;;;;;;;;6212470;23;19993;-71
2022/09/05 01:09:43;;;;;;;;;;;;;;;;;;6212400;23;19923;-70
2022/09/05 01:12:09;;;;;;;;;;;;;;;;;;6212387;23;19912;-71
2022/09/05 01:14:35;;;;;;;;;;;;;;;;;;6211857;23;19973;-70
2022/09/05 01:17:01;;;;;;;;;;;;;;;;;;6212106;23;19966;-70
2022/09/05 01:19:26;;;;;;;;;;;;;;;;;;6212288;23;19912;-71
2022/09/05 01:21:52;;;;;;;;;;;;;;;;;;6212062;23;19927;-71
2022/09/05 01:24:17;;;;;;;;;;;;;;;;;;6210808;23;19948;-71
2022/09/05 01:26:43;;;;;;;;;;;;;;;;;;6212429;23;19912;-70
2022/09/05 01:29:08;;;;;;;;;;;;;;;;;;6211938;23;20405;-71
2022/09/05 01:31:34;;;;;;;;;;;;;;;;;;6210512;23;19911;-70
2022/09/05 01:34:00;;;;;;;;;;;;;;;;;;6210513;23;19995;-70
2022/09/05 01:36:26;;;;;;;;;;;;;;;;;;6212022;23;20261;-70
2022/09/05 01:38:51;;;;;;;;;;;;;;;;;;6211787;23;19919;-71
2022/09/05 01:41:18;;;;;;;;;;;;;;;;;;6185709;23;20119;-71
2022/09/05 01:43:44;;;;;;;;;;;;;;;;;;6213176;23;19912;-71
2022/09/05 01:46:09;;;;;;;;;;;;;;;;;;6211477;23;19962;-71
2022/09/05 01:48:35;;;;;;;;;;;;;;;;;;6213303;23;20050;-71
2022/09/05 01:51:02;;;;;;;;;;;;;;;;;;6212578;23;19912;-71
2022/09/05 01:53:27;;;;;;;;;;;;;;;;;;6213140;23;19927;-70
2022/09/05 01:55:53;;;;;;;;;;;;;;;;;;6213140;23;20248;-71
2022/09/05 01:58:19;;;;;;;;;;;;;;;;;;6213149;23;19912;-70
2022/09/05 02:00:45;;;;;;;;;;;;;;;;;;6212772;23;19919;-71
2022/09/05 02:03:10;;;;;;;;;;;;;;;;;;6212914;23;19916;-70
2022/09/05 02:05:36;;;;;;;;;;;;;;;;;;6212658;23;20398;-70
2022/09/05 02:08:02;;;;;;;;;;;;;;;;;;6212765;23;19939;-70
2022/09/05 02:10:27;;;;;;;;;;;;;;;;;;6212797;23;20340;-71
2022/09/05 02:12:53;;;;;;;;;;;;;;;;;;6212977;23;19919;-71
2022/09/05 02:15:19;;;;;;;;;;;;;;;;;;6212836;23;19911;-70
2022/09/05 02:17:45;;;;;;;;;;;;;;;;;;6186400;23;19911;-71
2022/09/05 02:20:10;;;;;;;;;;;;;;;;;;6212427;23;20342;-70
2022/09/05 02:22:36;;;;;;;;;;;;;;;;;;6212892;23;20388;-71
2022/09/05 02:25:01;;;;;;;;;;;;;;;;;;6212533;23;19947;-71
2022/09/05 02:27:28;;;;;;;;;;;;;;;;;;6212964;23;19966;-71
2022/09/05 02:29:55;;;;;;;;;;;;;;;;;;6212770;23;19912;-70
2022/09/05 02:32:21;;;;;;;;;;;;;;;;;;6214111;23;20367;-71
2022/09/05 02:34:46;;;;;;;;;;;;;;;;;;6186793;23;19916;-70
2022/09/05 02:37:12;;;;;;;;;;;;;;;;;;6186629;23;19916;-70
2022/09/05 02:39:37;;;;;;;;;;;;;;;;;;6186353;23;19991;-71
2022/09/05 02:42:03;;;;;;;;;;;;;;;;;;6212555;23;19919;-72
2022/09/05 02:44:29;;;;;;;;;;;;;;;;;;6186031;23;19911;-71
2022/09/05 02:46:54;;;;;;;;;;;;;;;;;;6211735;23;19918;-72
2022/09/05 02:49:21;;;;;;;;;;;;;;;;;;6212237;23;19918;-71
2022/09/05 02:51:46;;;;;;;;;;;;;;;;;;6186171;23;19912;-71
2022/09/05 02:54:12;;;;;;;;;;;;;;;;;;6212709;23;20030;-70
2022/09/05 02:56:37;;;;;;;;;;;;;;;;;;6212707;23;20328;-70
2022/09/05 02:59:03;;;;;;;;;;;;;;;;;;6211928;23;19919;-69
2022/09/05 03:01:29;;;;;;;;;;;;;;;;;;6210971;23;19916;-71
2022/09/05 03:03:55;;;;;;;;;;;;;;;;;;6212488;23;19965;-71
2022/09/05 03:06:20;;;;;;;;;;;;;;;;;;6212333;23;19912;-71
2022/09/05 03:08:46;;;;;;;;;;;;;;;;;;6212360;23;19912;-72
2022/09/05 03:11:12;;;;;;;;;;;;;;;;;;6211112;23;19920;-70
2022/09/05 03:13:37;;;;;;;;;;;;;;;;;;6212187;23;19959;-70
2022/09/05 03:16:03;;;;;;;;;;;;;;;;;;6211999;23;20013;-71
2022/09/05 03:18:28;;;;;;;;;;;;;;;;;;6185921;23;19927;-70
2022/09/05 03:20:54;;;;;;;;;;;;;;;;;;6212209;23;19926;-70
2022/09/05 03:23:19;;;;;;;;;;;;;;;;;;6212179;23;19999;-70
2022/09/05 03:25:45;;;;;;;;;;;;;;;;;;6212114;23;19911;-70
2022/09/05 03:28:10;;;;;;;;;;;;;;;;;;6211754;23;19957;-70
2022/09/05 03:30:36;;;;;;;;;;;;;;;;;;6210981;23;19934;-71
2022/09/05 03:33:01;;;;;;;;;;;;;;;;;;6211262;23;19978;-71
2022/09/05 03:35:27;;;;;;;;;;;;;;;;;;6211089;23;20435;-71
2022/09/05 03:37:52;;;;;;;;;;;;;;;;;;6185221;23;19919;-71
2022/09/05 03:40:18;;;;;;;;;;;;;;;;;;6184233;23;19919;-70
2022/09/05 03:42:44;;;;;;;;;;;;;;;;;;6210918;23;19912;-72
2022/09/05 03:45:10;;;;;;;;;;;;;;;;;;6209482;23;19912;-73
2022/09/05 03:47:35;;;;;;;;;;;;;;;;;;6210535;23;20260;-72
2022/09/05 03:50:01;;;;;;;;;;;;;;;;;;6211228;23;19926;-71
2022/09/05 03:52:28;;;;;;;;;;;;;;;;;;6212229;23;19918;-71
2022/09/05 03:54:54;;;;;;;;;;;;;;;;;;6211821;23;19999;-71
2022/09/05 03:57:19;;;;;;;;;;;;;;;;;;6211789;23;20349;-71
2022/09/05 03:59:45;;;;;;;;;;;;;;;;;;6210455;23;19920;-71
2022/09/05 04:02:11;;;;;;;;;;;;;;;;;;6211015;23;19912;-71
2022/09/05 04:04:37;;;;;;;;;;;;;;;;;;6211879;23;19954;-71
2022/09/05 04:07:02;;;;;;;;;;;;;;;;;;6210921;23;19918;-71
2022/09/05 04:09:28;;;;;;;;;;;;;;;;;;6211065;23;19955;-71
2022/09/05 04:11:53;;;;;;;;;;;;;;;;;;6183612;23;19922;-72
2022/09/05 04:14:19;;;;;;;;;;;;;;;;;;6184116;23;20293;-71
2022/09/05 04:16:44;;;;;;;;;;;;;;;;;;6211256;23;20469;-71
2022/09/05 04:19:10;;;;;;;;;;;;;;;;;;6210863;23;19912;-72
2022/09/05 04:21:38;;;;;;;;;;;;;;;;;;6210212;23;19912;-72
2022/09/05 04:24:04;;;;;;;;;;;;;;;;;;6211549;23;19998;-72
2022/09/05 04:26:29;;;;;;;;;;;;;;;;;;6185553;23;19951;-75
2022/09/05 04:28:55;;;;;;;;;;;;;;;;;;6185174;23;19919;-75
2022/09/05 04:31:20;;;;;;;;;;;;;;;;;;6184773;23;19912;-74
2022/09/05 04:33:46;;;;;;;;;;;;;;;;;;6185359;23;20315;-75
2022/09/05 04:36:12;;;;;;;;;;;;;;;;;;6211535;23;19915;-75
2022/09/05 04:38:37;;;;;;;;;;;;;;;;;;6211396;23;20411;-74
2022/09/05 04:41:03;;;;;;;;;;;;;;;;;;6211665;23;19947;-75
2022/09/05 04:43:28;;;;;;;;;;;;;;;;;;6212359;23;19912;-74
2022/09/05 04:45:54;;;;;;;;;;;;;;;;;;6212029;23;19911;-76
2022/09/05 04:48:20;;;;;;;;;;;;;;;;;;6212036;23;20340;-74
2022/09/05 04:50:45;;;;;;;;;;;;;;;;;;6211789;23;20002;-75
2022/09/05 04:53:11;;;;;;;;;;;;;;;;;;6211866;23;19919;-74
2022/09/05 04:55:37;;;;;;;;;;;;;;;;;;6211765;23;20359;-71
2022/09/05 04:58:05;;;;;;;;;;;;;;;;;;6210782;23;19995;-71
2022/09/05 05:00:31;;;;;;;;;;;;;;;;;;6208913;23;19926;-71
2022/09/05 05:02:57;;;;;;;;;;;;;;;;;;6209239;23;20010;-71
2022/09/05 05:05:23;;;;;;;;;;;;;;;;;;6204495;23;19920;-70
2022/09/05 05:07:48;;;;;;;;;;;;;;;;;;6207101;23;19912;-70
2022/09/05 05:10:14;;;;;;;;;;;;;;;;;;6208176;23;19918;-69
2022/09/05 05:12:39;;;;;;;;;;;;;;;;;;6209051;23;20006;-68
2022/09/05 05:15:05;;;;;;;;;;;;;;;;;;6211348;23;19912;-73
2022/09/05 05:17:30;;;;;;;;;;;;;;;;;;6211198;23;20019;-70
2022/09/05 05:19:56;;;;;;;;;;;;;;;;;;6212224;23;19912;-71
2022/09/05 05:22:21;;;;;;;;;;;;;;;;;;6209542;23;19916;-72
2022/09/05 05:24:47;;;;;;;;;;;;;;;;;;6211326;23;20581;-71
2022/09/05 05:27:13;;;;;;;;;;;;;;;;;;6211360;23;19915;-70
2022/09/05 05:29:38;;;;;;;;;;;;;;;;;;6211950;23;19974;-72
2022/09/05 05:32:04;;;;;;;;;;;;;;;;;;6208663;23;19918;-70
2022/09/05 05:34:29;;;;;;;;;;;;;;;;;;6211750;23;19920;-71
2022/09/05 05:36:55;;;;;;;;;;;;;;;;;;6209449;23;19912;-73
2022/09/05 05:39:21;;;;;;;;;;;;;;;;;;6211211;23;20276;-70
2022/09/05 05:41:47;;;;;;;;;;;;;;;;;;6211341;23;19923;-70
2022/09/05 05:44:12;;;;;;;;;;;;;;;;;;6211478;23;20326;-70
2022/09/05 05:46:38;;;;;;;;;;;;;;;;;;6184347;23;19953;-69
2022/09/05 05:49:04;;;;;;;;;;;;;;;;;;6210995;23;20319;-71
2022/09/05 05:51:29;;;;;;;;;;;;;;;;;;6211080;23;20295;-70
2022/09/05 05:53:55;;;;;;;;;;;;;;;;;;6211635;23;19916;-70
2022/09/05 05:56:21;;;;;;;;;;;;;;;;;;6211223;23;19911;-70
2022/09/05 05:58:46;;;;;;;;;;;;;;;;;;6211286;23;19919;-70
2022/09/05 06:01:12;;;;;;;;;;;;;;;;;;6210413;23;19916;-71
2022/09/05 06:03:38;;;;;;;;;;;;;;;;;;6184593;23;19912;-71
2022/09/05 06:06:06;;;;;;;;;;;;;;;;;;6211177;23;20003;-71
2022/09/05 06:08:31;;;;;;;;;;;;;;;;;;6185241;23;19911;-70
2022/09/05 06:10:57;;;;;;;;;;;;;;;;;;6212190;23;19962;-70
2022/09/05 06:13:22;;;;;;;;;;;;;;;;;;6211951;23;19958;-73
2022/09/05 06:15:48;;;;;;;;;;;;;;;;;;6212002;23;20221;-73
2022/09/05 06:18:14;;;;;;;;;;;;;;;;;;6184686;23;19919;-72
2022/09/05 06:20:39;;;;;;;;;;;;;;;;;;6210922;23;20340;-74
2022/09/05 06:23:05;;;;;;;;;;;;;;;;;;6210915;23;19912;-73
2022/09/05 06:25:31;;;;;;;;;;;;;;;;;;6159700;23;19912;-72
2022/09/05 06:27:56;;;;;;;;;;;;;;;;;;6211046;23;19908;-73
2022/09/05 06:30:22;;;;;;;;;;;;;;;;;;6210374;23;19935;-73
2022/09/05 06:32:48;;;;;;;;;;;;;;;;;;6211313;23;20324;-72
2022/09/05 06:35:14;;;;;;;;;;;;;;;;;;6210533;23;20332;-73
2022/09/05 06:37:39;;;;;;;;;;;;;;;;;;6210532;23;19919;-71
2022/09/05 06:40:05;;;;;;;;;;;;;;;;;;6210418;23;19915;-73
2022/09/05 06:42:30;;;;;;;;;;;;;;;;;;6211346;23;19912;-72
2022/09/05 06:44:56;;;;;;;;;;;;;;;;;;6210850;23;19915;-71
2022/09/05 06:47:22;;;;;;;;;;;;;;;;;;6209161;23;19927;-72
2022/09/05 06:49:47;;;;;;;;;;;;;;;;;;6211888;23;19935;-72
2022/09/05 06:52:13;;;;;;;;;;;;;;;;;;6210454;23;19912;-72
2022/09/05 06:54:38;;;;;;;;;;;;;;;;;;6211021;23;20268;-73
2022/09/05 06:57:04;;;;;;;;;;;;;;;;;;6184374;23;20245;-72
2022/09/05 06:59:33;;;;;;;;;;;;;;;;;;6210800;23;19920;-71
2022/09/05 07:01:58;;;;;;;;;;;;;;;;;;6210910;23;19911;-71
2022/09/05 07:04:24;;;;;;;;;;;;;;;;;;6184263;23;20007;-71
2022/09/05 07:06:50;;;;;;;;;;;;;;;;;;6209421;23;20353;-71
2022/09/05 07:09:15;;;;;;;;;;;;;;;;;;6210663;23;19981;-72
2022/09/05 07:11:41;;;;;;;;;;;;;;;;;;6210853;23;20322;-72
2022/09/05 07:14:07;;;;;;;;;;;;;;;;;;6210567;23;19920;-71
2022/09/05 07:16:33;;;;;;;;;;;;;;;;;;6210591;23;20367;-73
2022/09/05 07:18:58;;;;;;;;;;;;;;;;;;6209450;23;19912;-71
2022/09/05 07:21:24;;;;;;;;;;;;;;;;;;6183593;23;20368;-71
2022/09/05 07:23:50;;;;;;;;;;;;;;;;;;6182935;23;20360;-72
2022/09/05 07:26:15;;;;;;;;;;;;;;;;;;6208716;23;19955;-71
2022/09/05 07:28:42;;;;;;;;;;;;;;;;;;6209165;23;19918;-71
2022/09/05 07:31:08;;;;;;;;;;;;;;;;;;6209517;23;19918;-71
2022/09/05 07:33:33;;;;;;;;;;;;;;;;;;6208763;23;19919;-72
2022/09/05 07:35:59;;;;;;;;;;;;;;;;;;6207803;23;19994;-72
2022/09/05 07:38:24;;;;;;;;;;;;;;;;;;6209159;23;19916;-72
2022/09/05 07:40:50;;;;;;;;;;;;;;;;;;6209910;23;19912;-73
2022/09/05 07:43:16;;;;;;;;;;;;;;;;;;6209938;23;19939;-72
2022/09/05 07:45:41;;;;;;;;;;;;;;;;;;6183532;23;19998;-73
2022/09/05 07:48:07;;;;;;;;;;;;;;;;;;6209826;23;19995;-72
2022/09/05 07:50:33;;;;;;;;;;;;;;;;;;6210439;23;19995;-73
2022/09/05 07:52:59;;;;;;;;;;;;;;;;;;6210006;23;19966;-72
2022/09/05 07:55:24;;;;;;;;;;;;;;;;;;6210065;23;20363;-73
2022/09/05 07:57:50;;;;;;;;;;;;;;;;;;6209945;23;19912;-73
2022/09/05 08:00:18;;;;;;;;;;;;;;;;;;6209790;23;19923;-72
2022/09/05 08:02:44;;;;;;;;;;;;;;;;;;6210137;23;19919;-73
2022/09/05 08:05:10;;;;;;;;;;;;;;;;;;6210440;23;19912;-72
2022/09/05 08:07:36;;;;;;;;;;;;;;;;;;6210246;23;19912;-72
2022/09/05 08:10:02;;;;;;;;;;;;;;;;;;6183754;23;19963;-73
2022/09/05 08:12:28;;;;;;;;;;;;;;;;;;6210768;23;19912;-73
2022/09/05 08:14:54;;;;;;;;;;;;;;;;;;6185127;23;19916;-72
2022/09/05 08:17:20;;;;;;;;;;;;;;;;;;6211392;23;19911;-73
2022/09/05 08:19:45;;;;;;;;;;;;;;;;;;6210877;23;19912;-72
2022/09/05 08:22:12;;;;;;;;;;;;;;;;;;6211112;23;19934;-73
2022/09/05 08:24:38;;;;;;;;;;;;;;;;;;6212083;23;19943;-73
2022/09/05 08:27:04;;;;;;;;;;;;;;;;;;6211865;23;19912;-73
2022/09/05 08:29:32;;;;;;;;;;;;;;;;;;6185370;23;19934;-73
2022/09/05 08:31:59;;;;;;;;;;;;;;;;;;6211617;23;20372;-73
2022/09/05 08:34:24;;;;;;;;;;;;;;;;;;6211509;23;19939;-74
2022/09/05 08:36:50;;;;;;;;;;;;;;;;;;6205529;23;19936;-72
2022/09/05 08:39:16;;;;;;;;;;;;;;;;;;6209762;23;19918;-72
2022/09/05 08:41:41;;;;;;;;;;;;;;;;;;6208726;23;20311;-70
2022/09/05 08:44:07;;;;;;;;;;;;;;;;;;6209885;23;19912;-70
2022/09/05 08:46:32;;;;;;;;;;;;;;;;;;6210608;23;19966;-70
2022/09/05 08:48:58;;;;;;;;;;;;;;;;;;6185278;23;19950;-70
2022/09/05 08:51:23;;;;;;;;;;;;;;;;;;6212038;23;19938;-72
2022/09/05 08:53:49;;;;;;;;;;;;;;;;;;6212315;23;20279;-71
2022/09/05 08:56:15;;;;;;;;;;;;;;;;;;6210438;23;19912;-72
2022/09/05 08:58:40;;;;;;;;;;;;;;;;;;6211485;23;19916;-71
2022/09/05 09:01:06;;;;;;;;;;;;;;;;;;6211918;23;20272;-72
2022/09/05 09:03:31;;;;;;;;;;;;;;;;;;6211927;23;20068;-72
2022/09/05 09:05:57;;;;;;;;;;;;;;;;;;6211908;23;19915;-72
2022/09/05 09:08:23;;;;;;;;;;;;;;;;;;6211661;23;20367;-72
2022/09/05 09:10:48;;;;;;;;;;;;;;;;;;6212487;23;19919;-71
2022/09/05 09:13:14;;;;;;;;;;;;;;;;;;6185467;23;19951;-72
2022/09/05 09:15:40;;;;;;;;;;;;;;;;;;6185458;23;19911;-74
2022/09/05 09:18:05;;;;;;;;;;;;;;;;;;6211843;23;19912;-71
2022/09/05 09:20:32;;;;;;;;;;;;;;;;;;6211028;23;19908;-71
2022/09/05 09:22:57;;;;;;;;;;;;;;;;;;6211647;23;19916;-72
2022/09/05 09:25:23;;;;;;;;;;;;;;;;;;6211798;23;19958;-73
2022/09/05 09:27:48;;;;;;;;;;;;;;;;;;6211587;23;19912;-72
2022/09/05 09:30:14;;;;;;;;;;;;;;;;;;6211718;23;20263;-73
2022/09/05 09:32:40;;;;;;;;;;;;;;;;;;6211771;23;20399;-72
2022/09/05 09:35:05;;;;;;;;;;;;;;;;;;6211679;23;20311;-73
2022/09/05 09:37:31;;;;;;;;;;;;;;;;;;6211024;23;19918;-73
2022/09/05 09:39:56;;;;;;;;;;;;;;;;;;6211652;23;19919;-74
2022/09/05 09:42:22;;;;;;;;;;;;;;;;;;6209910;23;19920;-74
2022/09/05 09:44:48;;;;;;;;;;;;;;;;;;6211761;23;19912;-72
2022/09/05 09:47:14;;;;;;;;;;;;;;;;;;6211347;23;19911;-72
2022/09/05 09:49:39;;;;;;;;;;;;;;;;;;6211566;23;19918;-73
2022/09/05 09:52:05;;;;;;;;;;;;;;;;;;6211579;23;19947;-73
2022/09/05 09:54:31;;;;;;;;;;;;;;;;;;6185197;23;19919;-73
2022/09/05 09:56:56;;;;;;;;;;;;;;;;;;6213109;23;19943;-71
2022/09/05 09:59:22;;;;;;;;;;;;;;;;;;6211794;23;19928;-72
2022/09/05 10:01:52;;;;;;;;;;;;;;;;;;6211813;23;19916;-71
2022/09/05 10:04:17;;;;;;;;;;;;;;;;;;6184346;23;19912;-72
2022/09/05 10:06:43;;;;;;;;;;;;;;;;;;6181850;23;19912;-69
2022/09/05 10:09:08;;;;;;;;;;;;;;;;;;6211108;23;20307;-70
2022/09/05 10:11:34;;;;;;;;;;;;;;;;;;6211112;23;19912;-71
2022/09/05 10:14:00;;;;;;;;;;;;;;;;;;6211209;23;19920;-71
2022/09/05 10:16:25;;;;;;;;;;;;;;;;;;6210656;23;19970;-74
2022/09/05 10:18:53;;;;;;;;;;;;;;;;;;6211748;23;19912;-77
2022/09/05 10:21:18;;;;;;;;;;;;;;;;;;6210040;23;19944;-75
2022/09/05 10:23:44;;;;;;;;;;;;;;;;;;6209342;23;20428;-75
2022/09/05 10:26:10;;;;;;;;;;;;;;;;;;6209437;23;19912;-75
2022/09/05 10:28:35;;;;;;;;;;;;;;;;;;6210420;23;19912;-74
2022/09/05 10:31:01;;;;;;;;;;;;;;;;;;6209768;23;19990;-74
2022/09/05 10:33:30;;;;;;;;;;;;;;;;;;6209533;23;19926;-74
2022/09/05 10:35:55;;;;;;;;;;;;;;;;;;6183982;23;20332;-74
2022/09/05 10:38:21;;;;;;;;;;;;;;;;;;6209974;23;19939;-75
2022/09/05 10:40:46;;;;;;;;;;;;;;;;;;6210796;23;19912;-74
2022/09/05 10:43:12;;;;;;;;;;;;;;;;;;6210447;23;20007;-74
2022/09/05 10:45:38;;;;;;;;;;;;;;;;;;6211312;23;19942;-74
2022/09/05 10:48:04;;;;;;;;;;;;;;;;;;6210810;23;19908;-72
2022/09/05 10:50:29;;;;;;;;;;;;;;;;;;6183768;23;19987;-74
2022/09/05 10:52:56;;;;;;;;;;;;;;;;;;6210788;23;19915;-74
2022/09/05 10:55:24;;;;;;;;;;;;;;;;;;6210443;23;19912;-74
2022/09/05 10:57:50;;;;;;;;;;;;;;;;;;6210831;23;20365;-75
2022/09/05 11:00:19;;;;;;;;;;;;;;;;;;6207678;23;20016;-74
2022/09/05 11:02:45;;;;;;;;;;;;;;;;;;6208741;23;19920;-73
2022/09/05 11:05:11;;;;;;;;;;;;;;;;;;6209115;23;19939;-74
2022/09/05 11:07:37;;;;;;;;;;;;;;;;;;6211311;23;19919;-80
2022/09/05 11:10:03;;;;;;;;;;;;;;;;;;6214133;23;19919;-82
2022/09/05 11:12:31;;;;;;;;;;;;;;;;;;6227769;23;19939;-75
2022/09/05 11:14:56;;;;;;;;;;;;;;;;;;6213560;23;20529;-74
2022/09/05 11:17:22;;;;;;;;;;;;;;;;;;6211159;23;19916;-75
2022/09/05 11:19:47;;;;;;;;;;;;;;;;;;6209991;23;19908;-77
2022/09/05 11:22:14;;;;;;;;;;;;;;;;;;6208230;23;20308;-76
2022/09/05 11:24:40;;;;;;;;;;;;;;;;;;6210073;23;19912;-77
2022/09/05 11:27:05;;;;;;;;;;;;;;;;;;6210328;23;19958;-76
2022/09/05 11:29:31;;;;;;;;;;;;;;;;;;6210450;23;19994;-77
2022/09/05 11:31:56;;;;;;;;;;;;;;;;;;6211860;23;19912;-77
2022/09/05 11:34:22;;;;;;;;;;;;;;;;;;6211963;23;20364;-77
2022/09/05 11:36:47;;;;;;;;;;;;;;;;;;6210449;23;20264;-76
2022/09/05 11:39:13;;;;;;;;;;;;;;;;;;6184924;23;19982;-76
2022/09/05 11:41:39;;;;;;;;;;;;;;;;;;6210606;23;19912;-74
2022/09/05 11:44:04;;;;;;;;;;;;;;;;;;6211752;23;19951;-77
2022/09/05 11:46:30;;;;;;;;;;;;;;;;;;6183935;23;19998;-78
2022/09/05 11:48:55;;;;;;;;;;;;;;;;;;6210418;23;19912;-78
2022/09/05 11:51:21;;;;;;;;;;;;;;;;;;6210226;23;19912;-77
2022/09/05 11:53:47;;;;;;;;;;;;;;;;;;6210628;23;19966;-77
2022/09/05 11:56:13;;;;;;;;;;;;;;;;;;6210558;23;19923;-76
2022/09/05 11:58:39;;;;;;;;;;;;;;;;;;6210468;23;19916;-75
2022/09/05 12:01:04;;;;;;;;;;;;;;;;;;6210855;23;19922;-77
2022/09/05 12:03:31;;;;;;;;;;;;;;;;;;6210370;23;19911;-77
2022/09/05 12:05:56;;;;;;;;;;;;;;;;;;6211299;23;20380;-75
2022/09/05 12:08:22;;;;;;;;;;;;;;;;;;6210780;23;20088;-76
2022/09/05 12:10:48;;;;;;;;;;;;;;;;;;6210509;23;20282;-76
2022/09/05 12:13:16;;;;;;;;;;;;;;;;;;6210535;23;19920;-78
2022/09/05 12:15:45;;;;;;;;;;;;;;;;;;6184661;23;19962;-78
2022/09/05 12:18:10;;;;;;;;;;;;;;;;;;6208628;23;19911;-77
2022/09/05 12:20:36;;;;;;;;;;;;;;;;;;6210566;23;19970;-73
2022/09/05 12:23:01;;;;;;;;;;;;;;;;;;6185008;23;19912;-72
2022/09/05 12:25:27;;;;;;;;;;;;;;;;;;6185058;23;20348;-73
2022/09/05 12:27:53;;;;;;;;;;;;;;;;;;6185778;23;20367;-73
2022/09/05 12:30:19;;;;;;;;;;;;;;;;;;6211662;23;19912;-74
2022/09/05 12:32:45;;;;;;;;;;;;;;;;;;6212055;23;20058;-72
2022/09/05 12:35:11;;;;;;;;;;;;;;;;;;6212225;23;20002;-73
2022/09/05 12:37:36;;;;;;;;;;;;;;;;;;6185402;23;19965;-73
2022/09/05 12:40:08;;;;;;;;;;;;;;;;;;6211016;23;19943;-74
2022/09/05 12:42:33;;;;;;;;;;;;;;;;;;6212755;23;19918;-74
2022/09/05 12:45:08;;;;;;;;;;;;;;;;;;6210948;23;19994;-73
2022/09/05 12:47:33;;;;;;;;;;;;;;;;;;6212478;23;19916;-73
2022/09/05 12:49:59;;;;;;;;;;;;;;;;;;6212915;23;19995;-73
2022/09/05 12:52:24;;;;;;;;;;;;;;;;;;6212217;23;20348;-76
2022/09/05 12:54:50;;;;;;;;;;;;;;;;;;6212351;23;19927;-74
2022/09/05 12:57:16;;;;;;;;;;;;;;;;;;6211823;23;20011;-74
2022/09/05 12:59:41;;;;;;;;;;;;;;;;;;6212106;23;19919;-74
2022/09/05 13:02:07;;;;;;;;;;;;;;;;;;6212136;23;20361;-74
2022/09/05 13:04:32;;;;;;;;;;;;;;;;;;6212342;23;19915;-74
2022/09/05 13:06:59;;;;;;;;;;;;;;;;;;6212074;23;19930;-74
2022/09/05 13:09:25;;;;;;;;;;;;;;;;;;6212251;23;19915;-71
2022/09/05 13:11:51;;;;;;;;;;;;;;;;;;6211982;23;20443;-71
2022/09/05 13:14:16;;;;;;;;;;;;;;;;;;6211823;23;19919;-71
2022/09/05 13:16:42;;;;;;;;;;;;;;;;;;6212625;23;20344;-71
2022/09/05 13:19:08;;;;;;;;;;;;;;;;;;6212282;23;19954;-70
2022/09/05 13:21:33;;;;;;;;;;;;;;;;;;6160581;23;19912;-72
2022/09/05 13:24:00;;;;;;;;;;;;;;;;;;6212488;23;19912;-73
2022/09/05 13:26:27;;;;;;;;;;;;;;;;;;6185439;23;19974;-72
2022/09/05 13:28:52;;;;;;;;;;;;;;;;;;6212191;23;20367;-73
2022/09/05 13:31:18;;;;;;;;;;;;;;;;;;6210129;23;20237;-72
2022/09/05 13:33:44;;;;;;;;;;;;;;;;;;6210817;23;20257;-72
2022/09/05 13:36:10;;;;;;;;;;;;;;;;;;6161210;23;19908;-72
2022/09/05 13:38:36;;;;;;;;;;;;;;;;;;6213225;23;20307;-78
2022/09/05 13:41:02;;;;;;;;;;;;;;;;;;6214479;23;19927;-72
2022/09/05 13:43:28;;;;;;;;;;;;;;;;;;6212543;23;19912;-73
2022/09/05 13:45:53;;;;;;;;;;;;;;;;;;6215772;23;19908;-73
2022/09/05 13:48:19;;;;;;;;;;;;;;;;;;6214290;23;19932;-73
2022/09/05 13:50:45;;;;;;;;;;;;;;;;;;6212734;23;20332;-74
2022/09/05 13:53:11;;;;;;;;;;;;;;;;;;6211316;23;20315;-75
2022/09/05 13:55:36;;;;;;;;;;;;;;;;;;6212341;23;19912;-74
2022/09/05 13:58:06;;;;;;;;;;;;;;;;;;6185102;23;20473;-74
2022/09/05 14:00:33;;;;;;;;;;;;;;;;;;6211201;23;19923;-75
2022/09/05 14:03:01;;;;;;;;;;;;;;;;;;6159885;23;19918;-72
2022/09/05 14:05:26;;;;;;;;;;;;;;;;;;6184825;23;19912;-72
2022/09/05 14:07:52;;;;;;;;;;;;;;;;;;6212497;23;20526;-72
2022/09/05 14:10:18;;;;;;;;;;;;;;;;;;6212730;23;20029;-70
2022/09/05 14:12:43;;;;;;;;;;;;;;;;;;6212729;23;20375;-72
2022/09/05 14:15:10;;;;;;;;;;;;;;;;;;6210433;23;19959;-71
2022/09/05 14:17:37;;;;;;;;;;;;;;;;;;6212498;23;19919;-71
2022/09/05 14:22:47;;;;;;;;;;;;;;;;;;6213249;23;19970;-69
2022/09/05 14:25:13;;;;;;;;;;;;;;;;;;6212301;23;20357;-71
2022/09/05 14:27:38;;;;;;;;;;;;;;;;;;6212293;23;20271;-73
2022/09/05 14:30:04;;;;;;;;;;;;;;;;;;6186063;23;19918;-73
2022/09/05 14:32:30;;;;;;;;;;;;;;;;;;6212281;23;19990;-73
2022/09/05 14:34:56;;;;;;;;;;;;;;;;;;6213141;23;20272;-73
2022/09/05 14:37:22;;;;;;;;;;;;;;;;;;6212094;23;19912;-71
2022/09/05 14:39:47;;;;;;;;;;;;;;;;;;6211184;23;19912;-73
2022/09/05 14:42:13;;;;;;;;;;;;;;;;;;6209811;23;20352;-74
2022/09/05 14:44:39;;;;;;;;;;;;;;;;;;6212891;23;19971;-73
2022/09/05 14:47:05;;;;;;;;;;;;;;;;;;6211497;23;19912;-73
2022/09/05 14:49:33;;;;;;;;;;;;;;;;;;6211626;23;19916;-73
2022/09/05 14:51:59;;;;;;;;;;;;;;;;;;6211508;23;19912;-73
2022/09/05 14:54:25;;;;;;;;;;;;;;;;;;6211279;23;19961;-74
2022/09/05 14:56:50;;;;;;;;;;;;;;;;;;6211466;23;19938;-73
2022/09/05 14:59:16;;;;;;;;;;;;;;;;;;6210806;23;19920;-73
2022/09/05 15:01:42;;;;;;;;;;;;;;;;;;6212072;23;19915;-73
2022/09/05 15:04:07;;;;;;;;;;;;;;;;;;6210522;23;20328;-72
2022/09/05 15:06:33;;;;;;;;;;;;;;;;;;6209762;23;19916;-72
2022/09/05 15:08:58;;;;;;;;;;;;;;;;;;6208487;23;19916;-72
2022/09/05 15:11:25;;;;;;;;;;;;;;;;;;6210832;23;19912;-72
2022/09/05 15:13:51;;;;;;;;;;;;;;;;;;6210366;23;20272;-72
2022/09/05 15:16:17;;;;;;;;;;;;;;;;;;6184344;23;19916;-71
2022/09/05 15:18:43;;;;;;;;;;;;;;;;;;6210884;23;20387;-72
2022/09/05 15:21:08;;;;;;;;;;;;;;;;;;6212327;23;19918;-72
2022/09/05 15:23:34;;;;;;;;;;;;;;;;;;6212113;23;19912;-72
2022/09/05 15:26:00;;;;;;;;;;;;;;;;;;6212313;23;19907;-72
2022/09/05 15:28:25;;;;;;;;;;;;;;;;;;6210345;23;19919;-72
2022/09/05 15:30:51;;;;;;;;;;;;;;;;;;6210859;23;19916;-72
2022/09/05 15:33:17;;;;;;;;;;;;;;;;;;6211906;23;20010;-72
2022/09/05 15:35:42;;;;;;;;;;;;;;;;;;6212330;23;19916;-72
2022/09/05 15:38:08;;;;;;;;;;;;;;;;;;6212098;23;19943;-72
2022/09/05 15:40:34;;;;;;;;;;;;;;;;;;6212946;23;19912;-72
2022/09/05 15:43:00;;;;;;;;;;;;;;;;;;6212230;23;19912;-72
2022/09/05 15:45:26;;;;;;;;;;;;;;;;;;6212217;23;19965;-73
2022/09/05 15:47:53;;;;;;;;;;;;;;;;;;6212348;23;20291;-72
2022/09/05 15:50:25;;;;;;;;;;;;;;;;;;6185479;23;20340;-72
2022/09/05 15:52:50;;;;;;;;;;;;;;;;;;6212150;23;19912;-73
2022/09/05 15:55:16;;;;;;;;;;;;;;;;;;6211962;23;19912;-72
2022/09/05 15:57:42;;;;;;;;;;;;;;;;;;6211942;23;19943;-72
2022/09/05 16:00:07;;;;;;;;;;;;;;;;;;6212219;23;19924;-73
2022/09/05 16:02:33;;;;;;;;;;;;;;;;;;6185579;23;19918;-72
2022/09/05 16:05:00;;;;;;;;;;;;;;;;;;6212590;23;19943;-72
2022/09/05 16:07:25;;;;;;;;;;;;;;;;;;6211947;23;19912;-74
2022/09/05 16:09:51;;;;;;;;;;;;;;;;;;6212066;23;19918;-73
2022/09/05 16:12:17;;;;;;;;;;;;;;;;;;6213429;23;19970;-72
2022/09/05 16:14:42;;;;;;;;;;;;;;;;;;6187946;23;19920;-73
2022/09/05 16:17:08;;;;;;;;;;;;;;;;;;6213392;23;19912;-73
2022/09/05 16:19:33;;;;;;;;;;;;;;;;;;6211703;23;19927;-72
2022/09/05 16:21:59;;;;;;;;;;;;;;;;;;6213182;23;19981;-72
2022/09/05 16:24:25;;;;;;;;;;;;;;;;;;6212301;23;20014;-72
2022/09/05 16:26:51;;;;;;;;;;;;;;;;;;6212236;23;19912;-72
2022/09/05 16:29:18;;;;;;;;;;;;;;;;;;6210525;23;19912;-71
2022/09/05 16:31:43;;;;;;;;;;;;;;;;;;6212111;23;19911;-71
2022/09/05 16:34:09;;;;;;;;;;;;;;;;;;6212093;23;20010;-71
2022/09/05 16:36:35;;;;;;;;;;;;;;;;;;6185086;23;19912;-71
2022/09/05 16:39:00;;;;;;;;;;;;;;;;;;6185349;23;19912;-71